Time;durP1;ratioP1;P1;durP2;ratioP2;P2;SDS_P1;SDS_P2;PMS_P1;PMS_P2;Temp;Humidity;BMP_temperature;BMP_pressure;BME280_temperature;BME280_humidity;BME280_pressure;Samples;Min_cycle;Max_cycle;Signal;HPM_P1;HPM_P2
2023/09/27 00:01:17;;;;;;;16.25;12.23;;;;;;;;;;5075559;28;20042;-69
2023/09/27 00:03:43;;;;;;;13.60;11.65;;;;;;;;;;5074941;28;20759;-69
2023/09/27 00:06:09;;;;;;;17.45;12.05;;;;;;;;;;5075115;28;20536;-69
2023/09/27 00:08:35;;;;;;;15.43;11.95;;;;;;;;;;5076333;28;20804;-69
2023/09/27 00:11:02;;;;;;;15.55;11.77;;;;;;;;;;5075171;28;20028;-69
2023/09/27 00:13:29;;;;;;;16.05;12.38;;;;;;;;;;5075444;28;20623;-69
2023/09/27 00:15:55;;;;;;;12.77;10.48;;;;;;;;;;5075441;28;20410;-69
2023/09/27 00:18:21;;;;;;;13.43;11.52;;;;;;;;;;5074538;28;20131;-69
2023/09/27 00:20:47;;;;;;;14.48;12.05;;;;;;;;;;5074685;28;20023;-69
2023/09/27 00:23:16;;;;;;;17.65;13.38;;;;;;;;;;5076138;28;20123;-69
2023/09/27 00:25:42;;;;;;;16.95;12.10;;;;;;;;;;5074433;28;20032;-69
2023/09/27 00:28:08;;;;;;;14.60;11.95;;;;;;;;;;5055786;28;20028;-69
2023/09/27 00:30:35;;;;;;;14.10;12.20;;;;;;;;;;5075155;28;20042;-69
2023/09/27 00:33:01;;;;;;;16.20;11.65;;;;;;;;;;5074057;27;20764;-69
2023/09/27 00:35:27;;;;;;;15.88;12.40;;;;;;;;;;5075124;28;20451;-69
2023/09/27 00:37:53;;;;;;;14.75;11.85;;;;;;;;;;5075480;28;20047;-69
2023/09/27 00:40:22;;;;;;;16.15;11.90;;;;;;;;;;5073419;28;20023;-69
2023/09/27 00:42:48;;;;;;;15.82;11.68;;;;;;;;;;5072690;28;20028;-69
2023/09/27 00:45:14;;;;;;;17.58;12.07;;;;;;;;;;5075011;28;20038;-69
2023/09/27 00:47:41;;;;;;;15.48;13.02;;;;;;;;;;5073139;28;20437;-69
2023/09/27 00:50:10;;;;;;;14.43;12.23;;;;;;;;;;5073712;28;20112;-69
2023/09/27 00:52:40;;;;;;;15.30;12.32;;;;;;;;;;5073791;28;20042;-69
2023/09/27 00:55:08;;;;;;;13.70;11.70;;;;;;;;;;5074860;28;20388;-69
2023/09/27 00:57:34;;;;;;;13.50;11.77;;;;;;;;;;5075394;28;20146;-69
2023/09/27 01:00:02;;;;;;;15.27;12.00;;;;;;;;;;5075292;28;20080;-69
2023/09/27 01:02:28;;;;;;;14.93;12.02;;;;;;;;;;5074135;28;20511;-69
2023/09/27 01:04:55;;;;;;;13.02;11.25;;;;;;;;;;5073854;28;20074;-69
2023/09/27 01:07:23;;;;;;;15.73;11.90;;;;;;;;;;5074623;28;20043;-69
2023/09/27 01:09:49;;;;;;;17.02;11.70;;;;;;;;;;5074281;28;20402;-69
2023/09/27 01:12:15;;;;;;;13.70;10.73;;;;;;;;;;5074379;28;20042;-69
2023/09/27 01:14:42;;;;;;;13.80;10.55;;;;;;;;;;5074778;28;20051;-69
2023/09/27 01:17:11;;;;;;;15.45;11.98;;;;;;;;;;5073803;28;20035;-69
2023/09/27 01:19:41;;;;;;;15.35;11.90;;;;;;;;;;5055274;28;20017;-69
2023/09/27 01:22:07;;;;;;;15.15;10.93;;;;;;;;;;5076333;28;20028;-69
2023/09/27 01:24:37;;;;;;;15.18;10.75;;;;;;;;;;5078997;27;20032;-69
2023/09/27 01:27:05;;;;;;;16.98;11.40;;;;;;;;;;5077945;28;20038;-69
2023/09/27 01:29:31;;;;;;;13.13;10.63;;;;;;;;;;5077667;27;20032;-69
2023/09/27 01:31:57;;;;;;;14.23;11.13;;;;;;;;;;5077921;28;20120;-69
2023/09/27 01:34:23;;;;;;;15.15;11.07;;;;;;;;;;5078694;28;20028;-69
2023/09/27 01:36:49;;;;;;;16.00;11.48;;;;;;;;;;5078055;27;20414;-69
2023/09/27 01:39:19;;;;;;;15.82;11.85;;;;;;;;;;5079303;28;20031;-69
2023/09/27 01:41:45;;;;;;;14.52;10.57;;;;;;;;;;5077399;27;20502;-69
2023/09/27 01:44:11;;;;;;;12.65;10.95;;;;;;;;;;5078960;28;20039;-69
2023/09/27 01:46:37;;;;;;;15.15;11.27;;;;;;;;;;5077755;28;20036;-69
2023/09/27 01:49:03;;;;;;;14.70;10.90;;;;;;;;;;5078806;27;20028;-69
2023/09/27 01:51:29;;;;;;;16.30;11.15;;;;;;;;;;5078895;28;20031;-69
2023/09/27 01:53:55;;;;;;;14.73;11.05;;;;;;;;;;5078545;28;20046;-69
2023/09/27 01:56:21;;;;;;;11.88;10.35;;;;;;;;;;5077877;28;20028;-69
2023/09/27 01:58:47;;;;;;;14.27;11.52;;;;;;;;;;5078033;28;20047;-69
2023/09/27 02:01:13;;;;;;;13.40;11.18;;;;;;;;;;5078926;27;20036;-69
2023/09/27 02:03:40;;;;;;;16.80;11.50;;;;;;;;;;5078460;28;20055;-69
2023/09/27 02:06:06;;;;;;;13.20;10.73;;;;;;;;;;5078097;28;20032;-69
2023/09/27 02:08:32;;;;;;;15.13;11.27;;;;;;;;;;5077459;27;20037;-69
2023/09/27 02:10:58;;;;;;;13.68;10.63;;;;;;;;;;5065465;28;20055;-69
2023/09/27 02:13:24;;;;;;;15.82;11.13;;;;;;;;;;5077457;28;20151;-69
2023/09/27 02:15:51;;;;;;;13.52;10.90;;;;;;;;;;5078337;28;20154;-69
2023/09/27 02:18:17;;;;;;;14.45;11.45;;;;;;;;;;5077282;28;20042;-63
2023/09/27 02:20:43;;;;;;;12.63;10.60;;;;;;;;;;5077245;28;20040;-63
2023/09/27 02:23:11;;;;;;;12.48;10.68;;;;;;;;;;5077732;28;20043;-63
2023/09/27 02:25:39;;;;;;;14.52;11.38;;;;;;;;;;5077054;28;20031;-63
2023/09/27 02:28:06;;;;;;;13.60;11.23;;;;;;;;;;5077713;28;20971;-63
2023/09/27 02:30:32;;;;;;;13.77;9.80;;;;;;;;;;5075875;28;20031;-63
2023/09/27 02:32:58;;;;;;;14.27;11.00;;;;;;;;;;5075820;28;20031;-63
2023/09/27 02:35:24;;;;;;;15.85;10.80;;;;;;;;;;5040821;28;20904;-63
2023/09/27 02:37:50;;;;;;;14.50;11.20;;;;;;;;;;5075772;28;20031;-63
2023/09/27 02:40:19;;;;;;;13.43;10.68;;;;;;;;;;5074982;28;20075;-63
2023/09/27 02:42:48;;;;;;;16.92;10.85;;;;;;;;;;5076009;28;20510;-63
2023/09/27 02:45:14;;;;;;;16.65;11.75;;;;;;;;;;5075800;28;21632;-63
2023/09/27 02:47:46;;;;;;;14.43;11.07;;;;;;;;;;5075376;27;20042;-63
2023/09/27 02:50:13;;;;;;;17.08;11.75;;;;;;;;;;5075697;28;20222;-63
2023/09/27 02:52:39;;;;;;;13.88;11.60;;;;;;;;;;5077709;28;20030;-63
2023/09/27 02:55:08;;;;;;;13.18;10.80;;;;;;;;;;5077168;28;20102;-63
2023/09/27 02:57:34;;;;;;;15.93;10.02;;;;;;;;;;5076506;28;21337;-63
2023/09/27 03:00:00;;;;;;;13.93;10.30;;;;;;;;;;5076809;28;20578;-63
2023/09/27 03:02:26;;;;;;;13.55;10.90;;;;;;;;;;5076851;28;20691;-63
2023/09/27 03:04:52;;;;;;;12.48;10.13;;;;;;;;;;5077524;28;20044;-63
2023/09/27 03:07:18;;;;;;;15.55;11.07;;;;;;;;;;5075639;28;20039;-65
2023/09/27 03:09:44;;;;;;;13.45;11.68;;;;;;;;;;5076837;28;20031;-63
2023/09/27 03:12:11;;;;;;;12.90;11.15;;;;;;;;;;5075502;28;20574;-63
2023/09/27 03:14:37;;;;;;;15.50;11.80;;;;;;;;;;5076168;27;20126;-63
2023/09/27 03:17:04;;;;;;;16.75;13.00;;;;;;;;;;5076228;27;20066;-63
2023/09/27 03:19:30;;;;;;;17.13;12.77;;;;;;;;;;5075692;27;20850;-63
2023/09/27 03:21:57;;;;;;;14.95;12.57;;;;;;;;;;5076737;28;20746;-63
2023/09/27 03:24:25;;;;;;;15.68;12.80;;;;;;;;;;5057597;28;20140;-63
2023/09/27 03:26:52;;;;;;;16.00;12.77;;;;;;;;;;5076651;28;20051;-63
2023/09/27 03:29:18;;;;;;;18.10;12.93;;;;;;;;;;5075027;28;20032;-63
2023/09/27 03:31:44;;;;;;;14.68;12.48;;;;;;;;;;5075913;28;20032;-63
2023/09/27 03:34:10;;;;;;;17.15;13.73;;;;;;;;;;5076033;28;20555;-63
2023/09/27 03:36:36;;;;;;;19.70;12.02;;;;;;;;;;5076067;28;20086;-63
2023/09/27 03:39:02;;;;;;;14.65;12.35;;;;;;;;;;5076084;28;20028;-63
2023/09/27 03:41:28;;;;;;;13.20;11.80;;;;;;;;;;5076928;28;20505;-63
2023/09/27 03:43:54;;;;;;;17.67;12.60;;;;;;;;;;5075755;27;20024;-63
2023/09/27 03:46:21;;;;;;;16.85;13.60;;;;;;;;;;5075055;28;20035;-63
2023/09/27 03:48:47;;;;;;;16.23;13.30;;;;;;;;;;5075598;28;20046;-63
2023/09/27 03:51:13;;;;;;;15.07;13.30;;;;;;;;;;5076793;28;20036;-63
2023/09/27 03:53:39;;;;;;;16.42;14.13;;;;;;;;;;5055652;28;20058;-63
2023/09/27 03:56:05;;;;;;;17.92;13.40;;;;;;;;;;5075649;28;20108;-63
2023/09/27 03:58:31;;;;;;;20.58;13.48;;;;;;;;;;5076248;28;20050;-63
2023/09/27 04:00:57;;;;;;;18.92;14.75;;;;;;;;;;5074996;28;20043;-63
2023/09/27 04:03:24;;;;;;;16.50;13.07;;;;;;;;;;5075182;28;20044;-63
2023/09/27 04:05:50;;;;;;;17.50;13.95;;;;;;;;;;5075456;28;20031;-63
2023/09/27 04:08:17;;;;;;;16.08;13.57;;;;;;;;;;5075758;28;20117;-63
2023/09/27 04:10:43;;;;;;;18.98;14.13;;;;;;;;;;5075645;28;20088;-63
2023/09/27 04:13:10;;;;;;;16.00;13.85;;;;;;;;;;5075719;28;20028;-63
2023/09/27 04:15:36;;;;;;;16.77;13.35;;;;;;;;;;5075375;28;20058;-63
2023/09/27 04:18:03;;;;;;;15.77;14.07;;;;;;;;;;5075282;28;20028;-63
2023/09/27 04:20:29;;;;;;;20.02;14.50;;;;;;;;;;5075758;28;20372;-63
2023/09/27 04:22:55;;;;;;;16.23;14.40;;;;;;;;;;5074509;28;20074;-63
2023/09/27 04:25:21;;;;;;;15.80;13.65;;;;;;;;;;5075715;28;20035;-63
2023/09/27 04:27:49;;;;;;;20.38;14.15;;;;;;;;;;5075295;28;20032;-63
2023/09/27 04:30:17;;;;;;;14.82;13.18;;;;;;;;;;5075189;28;20036;-63
2023/09/27 04:32:43;;;;;;;16.30;14.40;;;;;;;;;;5075141;28;20035;-63
2023/09/27 04:35:10;;;;;;;17.45;13.77;;;;;;;;;;5074921;28;20028;-63
2023/09/27 04:37:39;;;;;;;16.38;13.88;;;;;;;;;;5071902;28;20098;-63
2023/09/27 04:40:12;;;;;;;16.90;14.68;;;;;;;;;;5073471;28;20035;-63
2023/09/27 04:42:38;;;;;;;17.25;14.70;;;;;;;;;;5074148;28;20028;-63
2023/09/27 04:45:06;;;;;;;19.77;15.25;;;;;;;;;;5073966;28;20027;-63
2023/09/27 04:47:32;;;;;;;17.10;14.43;;;;;;;;;;5072818;28;20028;-63
2023/09/27 04:49:58;;;;;;;19.70;15.25;;;;;;;;;;5072815;28;20036;-63
2023/09/27 04:52:24;;;;;;;17.30;14.05;;;;;;;;;;5074286;28;20847;-63
2023/09/27 04:54:55;;;;;;;17.20;14.63;;;;;;;;;;5054293;28;20114;-63
2023/09/27 04:57:21;;;;;;;17.67;15.55;;;;;;;;;;5073728;28;20142;-63
2023/09/27 04:59:48;;;;;;;19.33;14.77;;;;;;;;;;5074617;28;20032;-63
2023/09/27 05:02:14;;;;;;;18.67;15.98;;;;;;;;;;5073294;28;20031;-63
2023/09/27 05:04:40;;;;;;;15.90;14.23;;;;;;;;;;5073483;28;20703;-63
2023/09/27 05:07:06;;;;;;;18.70;14.77;;;;;;;;;;5073782;28;20031;-63
2023/09/27 05:09:32;;;;;;;19.23;16.48;;;;;;;;;;5073581;28;20028;-63
2023/09/27 05:11:58;;;;;;;18.60;15.23;;;;;;;;;;5073144;28;20024;-63
2023/09/27 05:14:24;;;;;;;21.10;15.52;;;;;;;;;;5075374;28;20036;-63
2023/09/27 05:16:50;;;;;;;18.50;15.85;;;;;;;;;;5074898;28;20031;-63
2023/09/27 05:19:16;;;;;;;19.88;15.18;;;;;;;;;;5074114;28;20037;-63
2023/09/27 05:21:43;;;;;;;16.98;14.70;;;;;;;;;;5073664;28;20032;-63
2023/09/27 05:24:09;;;;;;;20.50;15.90;;;;;;;;;;5075085;28;20035;-63
2023/09/27 05:26:35;;;;;;;18.73;15.73;;;;;;;;;;5072935;28;20050;-63
2023/09/27 05:29:03;;;;;;;17.77;15.35;;;;;;;;;;5074330;28;21724;-63
2023/09/27 05:31:29;;;;;;;21.80;17.25;;;;;;;;;;5073619;28;20032;-63
2023/09/27 05:33:55;;;;;;;18.38;16.30;;;;;;;;;;5073777;28;20040;-63
2023/09/27 05:36:21;;;;;;;18.95;16.95;;;;;;;;;;5073107;28;21264;-63
2023/09/27 05:38:47;;;;;;;20.17;16.10;;;;;;;;;;5073653;28;20523;-63
2023/09/27 05:41:13;;;;;;;19.42;16.63;;;;;;;;;;5074108;28;20038;-63
2023/09/27 05:43:40;;;;;;;19.80;17.38;;;;;;;;;;5074227;28;20067;-63
2023/09/27 05:46:06;;;;;;;17.27;15.30;;;;;;;;;;5073321;28;20031;-63
2023/09/27 05:48:32;;;;;;;16.70;14.20;;;;;;;;;;5073330;28;20039;-63
2023/09/27 05:50:59;;;;;;;17.83;14.43;;;;;;;;;;5054331;28;20601;-63
2023/09/27 05:53:25;;;;;;;17.80;12.85;;;;;;;;;;5073025;28;20092;-63
2023/09/27 05:55:52;;;;;;;15.15;12.77;;;;;;;;;;5055550;28;20604;-63
2023/09/27 05:58:19;;;;;;;15.85;12.85;;;;;;;;;;5073465;28;20146;-63
2023/09/27 06:00:47;;;;;;;16.30;12.05;;;;;;;;;;5074926;28;20039;-63
2023/09/27 06:03:13;;;;;;;13.70;11.57;;;;;;;;;;5073272;28;20032;-63
2023/09/27 06:05:41;;;;;;;14.10;12.10;;;;;;;;;;5057018;28;20032;-69
2023/09/27 06:08:07;;;;;;;14.45;12.60;;;;;;;;;;5075008;28;20120;-69
2023/09/27 06:10:33;;;;;;;16.27;12.70;;;;;;;;;;5077069;27;20131;-69
2023/09/27 06:13:00;;;;;;;16.83;13.32;;;;;;;;;;5077440;28;20431;-69
2023/09/27 06:15:26;;;;;;;16.83;12.82;;;;;;;;;;5077558;28;20032;-69
2023/09/27 06:17:52;;;;;;;16.98;13.88;;;;;;;;;;5077058;28;20116;-68
2023/09/27 06:20:22;;;;;;;15.88;13.63;;;;;;;;;;5078287;27;20043;-69
2023/09/27 06:22:57;;;;;;;16.85;13.80;;;;;;;;;;5076854;28;20063;-69
2023/09/27 06:25:29;;;;;;;18.35;14.48;;;;;;;;;;5058266;28;20043;-68
2023/09/27 06:27:55;;;;;;;15.77;14.00;;;;;;;;;;5076314;28;20043;-69
2023/09/27 06:30:22;;;;;;;16.25;14.25;;;;;;;;;;5059923;28;20034;-69
2023/09/27 06:32:48;;;;;;;18.35;15.38;;;;;;;;;;5075658;28;20035;-68
2023/09/27 06:35:17;;;;;;;17.83;15.93;;;;;;;;;;5074998;28;20047;-68
2023/09/27 06:37:44;;;;;;;17.20;15.15;;;;;;;;;;5063920;28;20109;-69
2023/09/27 06:40:16;;;;;;;17.70;14.90;;;;;;;;;;5056891;28;20024;-69
2023/09/27 06:42:42;;;;;;;21.08;16.77;;;;;;;;;;5075398;28;20107;-68
2023/09/27 06:45:10;;;;;;;17.60;15.70;;;;;;;;;;5075289;27;20046;-69
2023/09/27 06:47:38;;;;;;;21.77;16.38;;;;;;;;;;5077415;28;20571;-69
2023/09/27 06:50:04;;;;;;;20.80;17.30;;;;;;;;;;5077531;28;20028;-69
2023/09/27 06:52:31;;;;;;;19.17;17.17;;;;;;;;;;5076312;28;20093;-68
2023/09/27 06:54:58;;;;;;;21.75;18.88;;;;;;;;;;5076628;28;20035;-69
2023/09/27 06:57:24;;;;;;;22.48;19.40;;;;;;;;;;5057161;28;20143;-69
2023/09/27 06:59:50;;;;;;;22.88;18.60;;;;;;;;;;5077395;28;20088;-68
2023/09/27 07:02:16;;;;;;;21.98;19.55;;;;;;;;;;5075805;28;20822;-69
2023/09/27 07:04:43;;;;;;;24.92;18.70;;;;;;;;;;5076733;27;20836;-69
2023/09/27 07:07:10;;;;;;;24.10;18.65;;;;;;;;;;5076560;28;20044;-68
2023/09/27 07:09:36;;;;;;;21.20;18.90;;;;;;;;;;5075871;28;20547;-69
2023/09/27 07:12:02;;;;;;;22.65;18.67;;;;;;;;;;5076210;28;20723;-69
2023/09/27 07:14:28;;;;;;;24.02;20.17;;;;;;;;;;5075936;28;20565;-69
2023/09/27 07:16:54;;;;;;;25.90;20.88;;;;;;;;;;5075501;28;20032;-68
2023/09/27 07:19:21;;;;;;;23.58;19.17;;;;;;;;;;5075251;28;20036;-69
2023/09/27 07:21:47;;;;;;;21.70;19.38;;;;;;;;;;5075334;28;20036;-69
2023/09/27 07:24:13;;;;;;;21.98;19.52;;;;;;;;;;5075055;28;20027;-69
2023/09/27 07:26:41;;;;;;;25.65;21.17;;;;;;;;;;5076075;28;20039;-69
2023/09/27 07:29:08;;;;;;;23.40;20.88;;;;;;;;;;5074848;28;20126;-69
2023/09/27 07:31:35;;;;;;;25.77;20.92;;;;;;;;;;5076066;28;20062;-69
2023/09/27 07:34:01;;;;;;;25.67;20.33;;;;;;;;;;5075403;28;20119;-69
2023/09/27 07:36:28;;;;;;;24.17;21.02;;;;;;;;;;5076673;28;20068;-69
2023/09/27 07:38:58;;;;;;;25.38;22.20;;;;;;;;;;5077503;28;20019;-69
2023/09/27 07:41:25;;;;;;;24.95;21.08;;;;;;;;;;5076309;28;20024;-69
2023/09/27 07:43:51;;;;;;;25.38;20.05;;;;;;;;;;5077147;28;20035;-68
2023/09/27 07:46:19;;;;;;;29.77;21.02;;;;;;;;;;5075734;28;20024;-69
2023/09/27 07:48:45;;;;;;;24.30;20.30;;;;;;;;;;5076409;28;20086;-69
2023/09/27 07:51:15;;;;;;;25.48;19.95;;;;;;;;;;5075124;28;20578;-69
2023/09/27 07:53:41;;;;;;;23.83;21.17;;;;;;;;;;5075967;28;20127;-69
2023/09/27 07:56:09;;;;;;;22.90;19.23;;;;;;;;;;5076580;28;20047;-69
2023/09/27 07:58:36;;;;;;;24.85;20.55;;;;;;;;;;5076067;28;20149;-69
2023/09/27 08:01:02;;;;;;;24.83;20.10;;;;;;;;;;5075422;28;20035;-69
2023/09/27 08:03:28;;;;;;;23.13;19.55;;;;;;;;;;5075298;28;20048;-69
2023/09/27 08:05:54;;;;;;;24.02;19.92;;;;;;;;;;5074774;28;20032;-68
2023/09/27 08:08:21;;;;;;;25.48;21.38;;;;;;;;;;5075016;28;20032;-69
2023/09/27 08:10:47;;;;;;;25.63;21.70;;;;;;;;;;5076262;27;20036;-68
2023/09/27 08:13:14;;;;;;;23.63;21.13;;;;;;;;;;5075457;28;20074;-69
2023/09/27 08:15:41;;;;;;;23.98;20.67;;;;;;;;;;5075892;28;20130;-69
2023/09/27 08:18:07;;;;;;;22.40;19.58;;;;;;;;;;5074743;27;20032;-69
2023/09/27 08:20:34;;;;;;;23.00;20.45;;;;;;;;;;5075260;27;20032;-69
2023/09/27 08:23:01;;;;;;;22.08;19.67;;;;;;;;;;5057768;28;20023;-69
2023/09/27 08:25:27;;;;;;;24.65;19.88;;;;;;;;;;5073914;28;20739;-68
2023/09/27 08:27:53;;;;;;;24.23;21.08;;;;;;;;;;5074212;28;20038;-69
2023/09/27 08:30:22;;;;;;;28.25;21.60;;;;;;;;;;5073885;28;20043;-69
2023/09/27 08:32:49;;;;;;;26.35;21.70;;;;;;;;;;5072707;28;20031;-69
2023/09/27 08:35:16;;;;;;;26.00;21.92;;;;;;;;;;5072333;28;20380;-69
2023/09/27 08:37:42;;;;;;;25.67;20.23;;;;;;;;;;5073677;28;21407;-68
2023/09/27 08:40:12;;;;;;;28.45;20.33;;;;;;;;;;5072983;28;21753;-69
2023/09/27 08:42:39;;;;;;;25.75;20.88;;;;;;;;;;5073771;27;20170;-69
2023/09/27 08:45:09;;;;;;;25.20;20.00;;;;;;;;;;5074220;28;20751;-68
2023/09/27 08:47:39;;;;;;;24.77;20.13;;;;;;;;;;5073272;28;20495;-69
2023/09/27 08:50:05;;;;;;;26.02;21.77;;;;;;;;;;5074523;28;20042;-69
2023/09/27 08:52:31;;;;;;;24.88;20.80;;;;;;;;;;5073291;28;20036;-69
2023/09/27 08:54:57;;;;;;;26.23;20.23;;;;;;;;;;5073312;28;20036;-69
2023/09/27 08:57:28;;;;;;;23.92;20.88;;;;;;;;;;5073178;28;20113;-69
2023/09/27 08:59:55;;;;;;;23.23;20.73;;;;;;;;;;5073215;28;20070;-69
2023/09/27 09:02:23;;;;;;;25.98;21.02;;;;;;;;;;5072933;28;20914;-69
2023/09/27 09:04:50;;;;;;;21.83;19.10;;;;;;;;;;5074041;28;20096;-68
2023/09/27 09:07:16;;;;;;;27.98;19.80;;;;;;;;;;5074166;28;20042;-69
2023/09/27 09:09:42;;;;;;;21.70;18.08;;;;;;;;;;5074181;28;20040;-69
2023/09/27 09:12:12;;;;;;;21.58;18.13;;;;;;;;;;5073667;28;20032;-69
2023/09/27 09:14:39;;;;;;;23.00;18.23;;;;;;;;;;5073786;28;20080;-69
2023/09/27 09:17:07;;;;;;;26.38;17.40;;;;;;;;;;5073835;28;20632;-69
2023/09/27 09:19:37;;;;;;;22.52;17.17;;;;;;;;;;5073494;28;20070;-69
2023/09/27 09:22:11;;;;;;;21.45;17.25;;;;;;;;;;5074330;28;20570;-69
2023/09/27 09:24:37;;;;;;;;;;;;;;;;;;5075621;28;20101;-69
2023/09/27 09:27:09;;;;;;;21.25;16.00;;;;;;;;;;5074216;28;20000;-69
2023/09/27 09:29:46;;;;;;;24.08;19.10;;;;;;;;;;5072768;28;20043;-69
2023/09/27 09:32:18;;;;;;;21.77;15.70;;;;;;;;;;5073627;28;20032;-69
2023/09/27 09:34:44;;;;;;;21.30;15.43;;;;;;;;;;5073781;28;20032;-69
2023/09/27 09:37:17;;;;;;;22.73;14.95;;;;;;;;;;5073992;28;20684;-63
2023/09/27 09:39:44;;;;;;;18.90;14.70;;;;;;;;;;5073460;28;20111;-63
2023/09/27 09:42:11;;;;;;;22.27;14.32;;;;;;;;;;5073775;28;20032;-63
2023/09/27 09:44:37;;;;;;;17.58;13.63;;;;;;;;;;5078327;28;20073;-63
2023/09/27 09:47:13;;;;;;;19.13;14.18;;;;;;;;;;5076029;28;20746;-63
2023/09/27 09:49:41;;;;;;;21.33;14.35;;;;;;;;;;5077113;28;20503;-63
2023/09/27 09:52:11;;;;;;;20.90;13.25;;;;;;;;;;5077320;28;20028;-64
2023/09/27 09:54:48;;;;;;;18.15;11.40;;;;;;;;;;5076704;28;20031;-64
2023/09/27 09:57:14;;;;;;;13.30;9.70;;;;;;;;;;5075934;28;20058;-64
2023/09/27 09:59:45;;;;;;;18.60;11.30;;;;;;;;;;5076231;28;20028;-64
2023/09/27 10:02:23;;;;;;;18.77;11.60;;;;;;;;;;5075080;28;20028;-64
2023/09/27 10:04:55;;;;;;;17.88;11.00;;;;;;;;;;5076086;28;20093;-64
2023/09/27 10:07:22;;;;;;;22.92;12.77;;;;;;;;;;5069445;28;20040;-64
2023/09/27 10:09:49;;;;;;;17.45;10.20;;;;;;;;;;5069631;28;20032;-63
2023/09/27 10:12:16;;;;;;;16.58;10.50;;;;;;;;;;5070521;28;20039;-64
2023/09/27 10:14:42;;;;;;;22.33;11.40;;;;;;;;;;5070176;28;20042;-64
2023/09/27 10:17:21;;;;;;;16.95;10.20;;;;;;;;;;5070587;28;20031;-64
2023/09/27 10:20:13;;;;;;;15.38;10.38;;;;;;;;;;5070085;28;20147;-64
2023/09/27 10:22:44;;;;;;;17.70;10.10;;;;;;;;;;5069801;28;20671;-64
2023/09/27 10:25:32;;;;;;;14.60;10.23;;;;;;;;;;5070665;28;20040;-63
2023/09/27 10:28:08;;;;;;;18.67;10.25;;;;;;;;;;5069971;28;20031;-63
2023/09/27 10:30:45;;;;;;;14.93;7.78;;;;;;;;;;5068474;28;20129;-63
2023/09/27 10:33:11;;;;;;;13.25;8.25;;;;;;;;;;5067819;28;20034;-64
2023/09/27 10:35:37;;;;;;;12.85;8.13;;;;;;;;;;5068654;28;20466;-64
2023/09/27 10:38:09;;;;;;;15.43;7.50;;;;;;;;;;5047660;28;20098;-63
2023/09/27 10:40:45;;;;;;;13.32;7.65;;;;;;;;;;5067857;28;20574;-64
2023/09/27 10:43:31;;;;;;;15.23;7.13;;;;;;;;;;5075149;28;20028;-63
2023/09/27 10:45:57;;;;;;;12.18;6.70;;;;;;;;;;5057022;28;20039;-63
2023/09/27 10:48:24;;;;;;;11.07;6.40;;;;;;;;;;5077487;28;20036;-63
2023/09/27 10:50:57;;;;;;;12.80;6.13;;;;;;;;;;5076809;28;20028;-63
2023/09/27 10:53:23;;;;;;;14.20;6.32;;;;;;;;;;5075893;28;20179;-63
2023/09/27 10:55:49;;;;;;;9.70;5.18;;;;;;;;;;5074861;28;20058;-64
2023/09/27 10:58:16;;;;;;;13.15;5.63;;;;;;;;;;5077084;28;20059;-64
2023/09/27 11:01:11;;;;;;;12.43;5.95;;;;;;;;;;5076898;28;21739;-64
2023/09/27 11:03:37;;;;;;;10.95;5.70;;;;;;;;;;5072070;28;20035;-64
2023/09/27 11:06:11;;;;;;;11.48;5.32;;;;;;;;;;5075136;28;20054;-63
2023/09/27 11:08:36;;;;;;;;;;;;;;;;;;5056817;28;20020;-64
2023/09/27 11:11:06;;;;;;;10.02;4.97;;;;;;;;;;5076099;28;19998;-64
2023/09/27 11:13:32;;;;;;;9.80;5.38;;;;;;;;;;5075802;28;20082;-63
2023/09/27 11:16:18;;;;;;;12.63;5.95;;;;;;;;;;5075605;28;20574;-63
2023/09/27 11:18:49;;;;;;;11.05;5.38;;;;;;;;;;5076193;28;20043;-63
2023/09/27 11:21:16;;;;;;;9.15;4.80;;;;;;;;;;5076531;28;20035;-63
2023/09/27 11:23:55;;;;;;;9.55;4.47;;;;;;;;;;5075385;28;20032;-63
2023/09/27 11:26:22;;;;;;;10.82;4.80;;;;;;;;;;5075716;28;20031;-63
2023/09/27 11:29:01;;;;;;;9.95;4.32;;;;;;;;;;5056640;28;20043;-63
2023/09/27 11:31:29;;;;;;;7.43;3.67;;;;;;;;;;5076538;28;20124;-63
2023/09/27 11:34:13;;;;;;;8.52;4.00;;;;;;;;;;5075066;28;20036;-69
2023/09/27 11:36:46;;;;;;;13.07;5.25;;;;;;;;;;5076894;28;20051;-69
2023/09/27 11:39:15;;;;;;;;;;;;;;;;;;5081955;28;21167;-69
2023/09/27 11:41:41;;;;;;;8.40;4.03;;;;;;;;;;5080770;28;19916;-69
2023/09/27 11:44:20;;;;;;;9.30;4.90;;;;;;;;;;5082145;28;20379;-69
2023/09/27 11:46:49;;;;;;;13.45;5.20;;;;;;;;;;5081255;28;20826;-69
2023/09/27 11:49:16;;;;;;;11.18;5.43;;;;;;;;;;5080704;28;20031;-69
2023/09/27 11:51:42;;;;;;;12.60;5.85;;;;;;;;;;5081908;28;20077;-69
2023/09/27 11:54:09;;;;;;;11.15;4.68;;;;;;;;;;5081148;28;20032;-69
2023/09/27 11:56:36;;;;;;;9.73;4.97;;;;;;;;;;5080521;28;20024;-69
2023/09/27 11:59:03;;;;;;;9.88;5.43;;;;;;;;;;5081338;28;20031;-69
2023/09/27 12:01:29;;;;;;;8.43;4.68;;;;;;;;;;5081258;28;20517;-69
2023/09/27 12:03:55;;;;;;;8.63;4.70;;;;;;;;;;5080036;28;20613;-69
2023/09/27 12:06:21;;;;;;;9.38;5.15;;;;;;;;;;5080521;28;20032;-69
2023/09/27 12:08:47;;;;;;;11.68;5.07;;;;;;;;;;5080988;28;20168;-69
2023/09/27 12:11:14;;;;;;;10.00;5.47;;;;;;;;;;5080348;28;20070;-69
2023/09/27 12:13:40;;;;;;;11.63;5.68;;;;;;;;;;5081152;28;20594;-69
2023/09/27 12:16:06;;;;;;;10.63;4.88;;;;;;;;;;5080652;28;20050;-69
2023/09/27 12:18:33;;;;;;;9.15;4.57;;;;;;;;;;5080520;28;20090;-69
2023/09/27 12:21:00;;;;;;;8.80;4.93;;;;;;;;;;5080804;28;20034;-69
2023/09/27 12:23:26;;;;;;;11.07;4.60;;;;;;;;;;5080839;28;20024;-69
2023/09/27 12:25:52;;;;;;;8.60;4.10;;;;;;;;;;5081123;28;20912;-69
2023/09/27 12:28:20;;;;;;;10.52;4.60;;;;;;;;;;5081032;28;20046;-68
2023/09/27 12:30:46;;;;;;;9.10;3.97;;;;;;;;;;5081808;28;20666;-69
2023/09/27 12:33:15;;;;;;;12.13;4.93;;;;;;;;;;5080281;28;20047;-69
2023/09/27 12:35:41;;;;;;;7.22;4.25;;;;;;;;;;5060006;28;20921;-69
2023/09/27 12:38:07;;;;;;;7.75;4.03;;;;;;;;;;5079811;28;20032;-69
2023/09/27 12:40:34;;;;;;;8.75;4.40;;;;;;;;;;5079794;28;20028;-69
2023/09/27 12:43:04;;;;;;;9.85;4.28;;;;;;;;;;5080114;28;20055;-69
2023/09/27 12:45:30;;;;;;;7.65;4.32;;;;;;;;;;5079320;28;20084;-69
2023/09/27 12:47:57;;;;;;;9.95;4.85;;;;;;;;;;5079516;28;20441;-69
2023/09/27 12:50:30;;;;;;;9.40;4.38;;;;;;;;;;5080347;28;20032;-69
2023/09/27 12:53:03;;;;;;;7.60;4.10;;;;;;;;;;5080598;28;20084;-69
2023/09/27 12:55:29;;;;;;;8.20;4.00;;;;;;;;;;5080473;28;20028;-69
2023/09/27 12:57:56;;;;;;;8.43;3.90;;;;;;;;;;5080554;28;20038;-69
2023/09/27 13:00:22;;;;;;;10.88;5.05;;;;;;;;;;5080849;28;20166;-69
2023/09/27 13:02:48;;;;;;;8.65;4.13;;;;;;;;;;5079699;28;20040;-69
2023/09/27 13:05:14;;;;;;;10.10;4.60;;;;;;;;;;5081200;28;20131;-69
2023/09/27 13:07:41;;;;;;;10.55;5.68;;;;;;;;;;5080490;28;20038;-69
2023/09/27 13:10:07;;;;;;;8.75;4.80;;;;;;;;;;5078850;28;20055;-64
2023/09/27 13:12:33;;;;;;;10.23;5.45;;;;;;;;;;5077585;28;20024;-63
2023/09/27 13:15:00;;;;;;;10.38;4.72;;;;;;;;;;5079585;28;20485;-63
2023/09/27 13:17:26;;;;;;;8.30;4.78;;;;;;;;;;5077707;28;20747;-64
2023/09/27 13:19:53;;;;;;;10.30;5.47;;;;;;;;;;5079067;28;20556;-64
2023/09/27 13:22:20;;;;;;;9.90;5.55;;;;;;;;;;5078890;28;20073;-63
2023/09/27 13:24:50;;;;;;;8.77;5.68;;;;;;;;;;5080452;28;20020;-64
2023/09/27 13:27:16;;;;;;;9.82;4.70;;;;;;;;;;5080643;28;20823;-63
2023/09/27 13:29:42;;;;;;;8.25;5.20;;;;;;;;;;5060207;28;20822;-64
2023/09/27 13:32:09;;;;;;;10.32;5.85;;;;;;;;;;5080516;28;20067;-64
2023/09/27 13:34:35;;;;;;;9.85;5.35;;;;;;;;;;5080222;28;20020;-64
2023/09/27 13:37:02;;;;;;;9.82;4.93;;;;;;;;;;5079062;28;20025;-63
2023/09/27 13:39:32;;;;;;;8.68;4.50;;;;;;;;;;5079916;28;20028;-64
2023/09/27 13:41:58;;;;;;;8.30;5.00;;;;;;;;;;5079744;28;20051;-63
2023/09/27 13:44:24;;;;;;;8.18;4.60;;;;;;;;;;5078868;28;20067;-64
2023/09/27 13:46:51;;;;;;;9.30;4.40;;;;;;;;;;5080342;28;20113;-64
2023/09/27 13:49:17;;;;;;;7.88;4.55;;;;;;;;;;5077722;28;20051;-64
2023/09/27 13:51:44;;;;;;;8.48;4.25;;;;;;;;;;5079242;28;20032;-64
2023/09/27 13:54:11;;;;;;;9.70;4.13;;;;;;;;;;5079494;28;20206;-64
2023/09/27 13:56:38;;;;;;;7.00;3.88;;;;;;;;;;5079534;28;20072;-64
2023/09/27 13:59:04;;;;;;;8.13;4.10;;;;;;;;;;5079308;28;20064;-63
2023/09/27 14:01:30;;;;;;;8.25;4.28;;;;;;;;;;5080444;28;20071;-63
2023/09/27 14:04:01;;;;;;;8.88;4.53;;;;;;;;;;5080249;28;21029;-63
2023/09/27 14:06:27;;;;;;;7.85;3.80;;;;;;;;;;5079442;28;20066;-64
2023/09/27 14:08:53;;;;;;;9.13;3.88;;;;;;;;;;5080202;28;20032;-64
2023/09/27 14:11:20;;;;;;;6.68;3.88;;;;;;;;;;5079868;28;20036;-63
2023/09/27 14:13:47;;;;;;;7.25;3.58;;;;;;;;;;5079093;28;20145;-64
2023/09/27 14:16:16;;;;;;;6.38;3.83;;;;;;;;;;5080056;28;20043;-64
2023/09/27 14:18:42;;;;;;;7.47;4.35;;;;;;;;;;5079955;28;20063;-64
2023/09/27 14:21:08;;;;;;;7.85;3.60;;;;;;;;;;5079766;28;20129;-64
2023/09/27 14:23:36;;;;;;;5.20;2.80;;;;;;;;;;5079595;28;20683;-64
2023/09/27 14:26:02;;;;;;;6.05;3.13;;;;;;;;;;5079418;28;20880;-64